sensor_id;sensor_type;location;lat;lon;timestamp;P1;durP1;ratioP1;P2;durP2;ratioP2
77984;SDS011;67177;47.240;-1.546;2023-04-06T00:01:31;7.47;;;3.53;;
77984;SDS011;67177;47.240;-1.546;2023-04-06T00:03:58;8.23;;;4.00;;
77984;SDS011;67177;47.240;-1.546;2023-04-06T00:06:24;9.23;;;4.00;;
77984;SDS011;67177;47.240;-1.546;2023-04-06T00:08:49;8.27;;;4.22;;
77984;SDS011;67177;47.240;-1.546;2023-04-06T00:11:15;8.10;;;4.10;;
77984;SDS011;67177;47.240;-1.546;2023-04-06T00:13:41;8.45;;;4.03;;
77984;SDS011;67177;47.240;-1.546;2023-04-06T00:16:07;7.97;;;4.00;;
77984;SDS011;67177;47.240;-1.546;2023-04-06T00:18:33;7.33;;;3.33;;
77984;SDS011;67177;47.240;-1.546;2023-04-06T00:20:59;7.50;;;3.53;;
77984;SDS011;67177;47.240;-1.546;2023-04-06T00:23:25;7.22;;;3.50;;
77984;SDS011;67177;47.240;-1.546;2023-04-06T00:25:50;6.27;;;3.50;;
77984;SDS011;67177;47.240;-1.546;2023-04-06T00:28:16;7.32;;;2.90;;
77984;SDS011;67177;47.240;-1.546;2023-04-06T00:30:42;5.83;;;2.57;;
77984;SDS011;67177;47.240;-1.546;2023-04-06T00:33:08;7.18;;;3.58;;
77984;SDS011;67177;47.240;-1.546;2023-04-06T00:35:34;5.73;;;2.60;;
77984;SDS011;67177;47.240;-1.546;2023-04-06T00:38:00;6.35;;;2.80;;
77984;SDS011;67177;47.240;-1.546;2023-04-06T00:40:25;7.85;;;2.85;;
77984;SDS011;67177;47.240;-1.546;2023-04-06T00:42:53;5.50;;;2.50;;
77984;SDS011;67177;47.240;-1.546;2023-04-06T00:45:19;7.22;;;3.30;;
77984;SDS011;67177;47.240;-1.546;2023-04-06T00:47:45;6.00;;;2.70;;
77984;SDS011;67177;47.240;-1.546;2023-04-06T00:50:11;6.40;;;2.40;;
77984;SDS011;67177;47.240;-1.546;2023-04-06T00:52:37;4.97;;;2.03;;
77984;SDS011;67177;47.240;-1.546;2023-04-06T00:55:03;4.43;;;1.60;;
77984;SDS011;67177;47.240;-1.546;2023-04-06T00:57:29;5.25;;;2.30;;
77984;SDS011;67177;47.240;-1.546;2023-04-06T00:59:56;4.85;;;2.00;;
77984;SDS011;67177;47.240;-1.546;2023-04-06T01:02:23;4.22;;;1.63;;
77984;SDS011;67177;47.240;-1.546;2023-04-06T01:04:50;4.50;;;1.70;;
77984;SDS011;67177;47.240;-1.546;2023-04-06T01:07:16;4.30;;;1.43;;
77984;SDS011;67177;47.240;-1.546;2023-04-06T01:09:42;4.57;;;1.70;;
77984;SDS011;67177;47.240;-1.546;2023-04-06T01:12:08;4.97;;;1.90;;
77984;SDS011;67177;47.240;-1.546;2023-04-06T01:14:33;5.40;;;2.35;;
77984;SDS011;67177;47.240;-1.546;2023-04-06T01:16:59;5.87;;;2.30;;
77984;SDS011;67177;47.240;-1.546;2023-04-06T01:19:25;6.35;;;2.80;;
77984;SDS011;67177;47.240;-1.546;2023-04-06T01:21:51;6.93;;;3.17;;
77984;SDS011;67177;47.240;-1.546;2023-04-06T01:24:18;6.10;;;2.67;;
77984;SDS011;67177;47.240;-1.546;2023-04-06T01:26:44;5.10;;;2.03;;
77984;SDS011;67177;47.240;-1.546;2023-04-06T01:29:10;4.82;;;1.90;;
77984;SDS011;67177;47.240;-1.546;2023-04-06T01:31:37;6.78;;;2.58;;
77984;SDS011;67177;47.240;-1.546;2023-04-06T01:34:03;6.53;;;2.60;;
77984;SDS011;67177;47.240;-1.546;2023-04-06T01:36:29;6.37;;;2.60;;
77984;SDS011;67177;47.240;-1.546;2023-04-06T01:38:55;6.95;;;2.95;;
77984;SDS011;67177;47.240;-1.546;2023-04-06T01:41:21;6.97;;;3.45;;
77984;SDS011;67177;47.240;-1.546;2023-04-06T01:43:47;7.67;;;3.30;;
77984;SDS011;67177;47.240;-1.546;2023-04-06T01:46:14;6.15;;;3.00;;
77984;SDS011;67177;47.240;-1.546;2023-04-06T01:48:39;6.85;;;3.30;;
77984;SDS011;67177;47.240;-1.546;2023-04-06T01:51:05;6.10;;;3.00;;
77984;SDS011;67177;47.240;-1.546;2023-04-06T01:53:31;6.85;;;3.00;;
77984;SDS011;67177;47.240;-1.546;2023-04-06T01:55:57;6.83;;;3.20;;
77984;SDS011;67177;47.240;-1.546;2023-04-06T01:58:23;6.20;;;3.20;;
77984;SDS011;67177;47.240;-1.546;2023-04-06T02:00:48;6.10;;;2.77;;
77984;SDS011;67177;47.240;-1.546;2023-04-06T02:03:14;6.47;;;2.88;;
77984;SDS011;67177;47.240;-1.546;2023-04-06T02:05:40;7.70;;;3.40;;
77984;SDS011;67177;47.240;-1.546;2023-04-06T02:08:05;7.20;;;3.40;;
77984;SDS011;67177;47.240;-1.546;2023-04-06T02:10:33;7.57;;;3.50;;
77984;SDS011;67177;47.240;-1.546;2023-04-06T02:12:59;7.25;;;3.53;;
77984;SDS011;67177;47.240;-1.546;2023-04-06T02:15:25;7.05;;;3.13;;
77984;SDS011;67177;47.240;-1.546;2023-04-06T02:17:51;6.35;;;2.85;;
77984;SDS011;67177;47.240;-1.546;2023-04-06T02:20:18;7.32;;;2.78;;
77984;SDS011;67177;47.240;-1.546;2023-04-06T02:22:44;5.93;;;2.57;;
77984;SDS011;67177;47.240;-1.546;2023-04-06T02:25:09;5.30;;;2.47;;
77984;SDS011;67177;47.240;-1.546;2023-04-06T02:27:36;5.43;;;2.50;;
77984;SDS011;67177;47.240;-1.546;2023-04-06T02:30:04;7.00;;;3.07;;
77984;SDS011;67177;47.240;-1.546;2023-04-06T02:32:31;7.03;;;2.70;;
77984;SDS011;67177;47.240;-1.546;2023-04-06T02:34:56;6.93;;;2.75;;
77984;SDS011;67177;47.240;-1.546;2023-04-06T02:37:22;6.03;;;2.40;;
77984;SDS011;67177;47.240;-1.546;2023-04-06T02:39:49;6.18;;;2.70;;
77984;SDS011;67177;47.240;-1.546;2023-04-06T02:42:15;5.53;;;2.40;;
77984;SDS011;67177;47.240;-1.546;2023-04-06T02:44:41;6.47;;;2.97;;
77984;SDS011;67177;47.240;-1.546;2023-04-06T02:47:07;7.22;;;3.05;;
77984;SDS011;67177;47.240;-1.546;2023-04-06T02:49:33;7.63;;;3.22;;
77984;SDS011;67177;47.240;-1.546;2023-04-06T02:51:59;7.03;;;3.20;;
77984;SDS011;67177;47.240;-1.546;2023-04-06T02:54:25;7.50;;;3.35;;
77984;SDS011;67177;47.240;-1.546;2023-04-06T02:56:51;7.28;;;3.30;;
77984;SDS011;67177;47.240;-1.546;2023-04-06T02:59:17;6.90;;;3.13;;
77984;SDS011;67177;47.240;-1.546;2023-04-06T03:01:42;6.95;;;3.45;;
77984;SDS011;67177;47.240;-1.546;2023-04-06T03:04:08;6.20;;;2.70;;
77984;SDS011;67177;47.240;-1.546;2023-04-06T03:06:34;6.85;;;2.97;;
77984;SDS011;67177;47.240;-1.546;2023-04-06T03:09:00;7.30;;;2.83;;
77984;SDS011;67177;47.240;-1.546;2023-04-06T03:11:25;5.90;;;2.95;;
77984;SDS011;67177;47.240;-1.546;2023-04-06T03:13:53;6.83;;;3.00;;
77984;SDS011;67177;47.240;-1.546;2023-04-06T03:16:19;6.10;;;2.72;;
77984;SDS011;67177;47.240;-1.546;2023-04-06T03:18:45;6.10;;;2.88;;
77984;SDS011;67177;47.240;-1.546;2023-04-06T03:21:12;5.43;;;2.45;;
77984;SDS011;67177;47.240;-1.546;2023-04-06T03:23:40;5.85;;;2.58;;
77984;SDS011;67177;47.240;-1.546;2023-04-06T03:26:06;5.65;;;2.75;;
77984;SDS011;67177;47.240;-1.546;2023-04-06T03:28:32;5.87;;;2.27;;
77984;SDS011;67177;47.240;-1.546;2023-04-06T03:30:58;5.57;;;2.22;;
77984;SDS011;67177;47.240;-1.546;2023-04-06T03:33:24;5.15;;;2.10;;
77984;SDS011;67177;47.240;-1.546;2023-04-06T03:35:52;5.07;;;1.90;;
77984;SDS011;67177;47.240;-1.546;2023-04-06T03:38:18;5.47;;;1.70;;
77984;SDS011;67177;47.240;-1.546;2023-04-06T03:40:44;5.03;;;1.73;;
77984;SDS011;67177;47.240;-1.546;2023-04-06T03:43:10;4.35;;;1.80;;
77984;SDS011;67177;47.240;-1.546;2023-04-06T03:45:36;5.70;;;1.90;;
77984;SDS011;67177;47.240;-1.546;2023-04-06T03:48:01;5.40;;;2.10;;
77984;SDS011;67177;47.240;-1.546;2023-04-06T03:50:27;5.20;;;1.92;;
77984;SDS011;67177;47.240;-1.546;2023-04-06T03:52:53;4.70;;;1.80;;
77984;SDS011;67177;47.240;-1.546;2023-04-06T03:55:19;4.90;;;1.53;;
77984;SDS011;67177;47.240;-1.546;2023-04-06T03:57:44;3.80;;;1.60;;
77984;SDS011;67177;47.240;-1.546;2023-04-06T04:00:10;4.20;;;1.60;;
77984;SDS011;67177;47.240;-1.546;2023-04-06T04:02:37;4.43;;;1.60;;
77984;SDS011;67177;47.240;-1.546;2023-04-06T04:05:03;4.47;;;1.80;;
77984;SDS011;67177;47.240;-1.546;2023-04-06T04:07:28;4.30;;;1.65;;
77984;SDS011;67177;47.240;-1.546;2023-04-06T04:09:54;4.65;;;1.80;;
77984;SDS011;67177;47.240;-1.546;2023-04-06T04:12:20;5.37;;;1.87;;
77984;SDS011;67177;47.240;-1.546;2023-04-06T04:14:46;4.72;;;2.10;;
77984;SDS011;67177;47.240;-1.546;2023-04-06T04:17:11;5.20;;;2.17;;
77984;SDS011;67177;47.240;-1.546;2023-04-06T04:19:37;4.63;;;1.90;;
77984;SDS011;67177;47.240;-1.546;2023-04-06T04:22:03;4.47;;;1.73;;
77984;SDS011;67177;47.240;-1.546;2023-04-06T04:24:30;4.90;;;1.80;;
77984;SDS011;67177;47.240;-1.546;2023-04-06T04:26:55;5.10;;;2.20;;
77984;SDS011;67177;47.240;-1.546;2023-04-06T04:29:21;4.90;;;1.90;;
77984;SDS011;67177;47.240;-1.546;2023-04-06T04:31:48;5.22;;;1.67;;
77984;SDS011;67177;47.240;-1.546;2023-04-06T04:34:14;5.40;;;2.20;;
77984;SDS011;67177;47.240;-1.546;2023-04-06T04:36:40;5.03;;;1.90;;
77984;SDS011;67177;47.240;-1.546;2023-04-06T04:39:07;4.43;;;1.70;;
77984;SDS011;67177;47.240;-1.546;2023-04-06T04:41:33;4.43;;;1.70;;
77984;SDS011;67177;47.240;-1.546;2023-04-06T04:43:58;4.07;;;1.47;;
77984;SDS011;67177;47.240;-1.546;2023-04-06T04:46:24;5.28;;;1.70;;
77984;SDS011;67177;47.240;-1.546;2023-04-06T04:48:50;4.47;;;1.80;;
77984;SDS011;67177;47.240;-1.546;2023-04-06T04:51:15;5.03;;;2.00;;
77984;SDS011;67177;47.240;-1.546;2023-04-06T04:53:41;5.40;;;2.13;;
77984;SDS011;67177;47.240;-1.546;2023-04-06T04:56:07;5.45;;;2.20;;
77984;SDS011;67177;47.240;-1.546;2023-04-06T04:58:32;5.20;;;2.10;;
77984;SDS011;67177;47.240;-1.546;2023-04-06T05:00:58;6.38;;;2.25;;
77984;SDS011;67177;47.240;-1.546;2023-04-06T05:03:24;4.90;;;1.73;;
77984;SDS011;67177;47.240;-1.546;2023-04-06T05:05:51;6.75;;;2.58;;
77984;SDS011;67177;47.240;-1.546;2023-04-06T05:08:17;9.23;;;4.97;;
77984;SDS011;67177;47.240;-1.546;2023-04-06T05:10:43;8.70;;;3.90;;
77984;SDS011;67177;47.240;-1.546;2023-04-06T05:13:10;8.05;;;3.80;;
77984;SDS011;67177;47.240;-1.546;2023-04-06T05:15:35;6.95;;;3.30;;
77984;SDS011;67177;47.240;-1.546;2023-04-06T05:18:06;6.68;;;2.72;;
77984;SDS011;67177;47.240;-1.546;2023-04-06T05:20:33;7.13;;;3.30;;
77984;SDS011;67177;47.240;-1.546;2023-04-06T05:22:59;6.28;;;2.78;;
77984;SDS011;67177;47.240;-1.546;2023-04-06T05:25:25;5.70;;;2.70;;
77984;SDS011;67177;47.240;-1.546;2023-04-06T05:27:51;5.80;;;2.33;;
77984;SDS011;67177;47.240;-1.546;2023-04-06T05:30:17;5.45;;;2.40;;
77984;SDS011;67177;47.240;-1.546;2023-04-06T05:32:43;5.03;;;2.10;;
77984;SDS011;67177;47.240;-1.546;2023-04-06T05:35:09;4.93;;;2.20;;
77984;SDS011;67177;47.240;-1.546;2023-04-06T05:37:36;5.10;;;2.40;;
77984;SDS011;67177;47.240;-1.546;2023-04-06T05:40:02;5.60;;;2.40;;
77984;SDS011;67177;47.240;-1.546;2023-04-06T05:42:35;5.90;;;2.67;;
77984;SDS011;67177;47.240;-1.546;2023-04-06T05:45:08;6.27;;;2.90;;
77984;SDS011;67177;47.240;-1.546;2023-04-06T05:47:36;5.40;;;2.30;;
77984;SDS011;67177;47.240;-1.546;2023-04-06T05:50:02;5.60;;;2.58;;
77984;SDS011;67177;47.240;-1.546;2023-04-06T05:52:27;6.15;;;2.40;;
77984;SDS011;67177;47.240;-1.546;2023-04-06T05:54:53;6.17;;;2.70;;
77984;SDS011;67177;47.240;-1.546;2023-04-06T05:57:19;5.97;;;2.72;;
77984;SDS011;67177;47.240;-1.546;2023-04-06T05:59:45;5.70;;;2.20;;
77984;SDS011;67177;47.240;-1.546;2023-04-06T06:02:10;6.32;;;3.00;;
77984;SDS011;67177;47.240;-1.546;2023-04-06T06:04:36;7.13;;;2.90;;
77984;SDS011;67177;47.240;-1.546;2023-04-06T06:07:02;5.53;;;2.60;;
77984;SDS011;67177;47.240;-1.546;2023-04-06T06:09:28;5.38;;;2.35;;
77984;SDS011;67177;47.240;-1.546;2023-04-06T06:11:54;5.83;;;2.30;;
77984;SDS011;67177;47.240;-1.546;2023-04-06T06:14:20;6.05;;;2.22;;
77984;SDS011;67177;47.240;-1.546;2023-04-06T06:16:46;5.43;;;2.30;;
77984;SDS011;67177;47.240;-1.546;2023-04-06T06:19:12;5.77;;;2.33;;
77984;SDS011;67177;47.240;-1.546;2023-04-06T06:21:38;5.32;;;2.50;;
77984;SDS011;67177;47.240;-1.546;2023-04-06T06:24:04;6.22;;;2.22;;
77984;SDS011;67177;47.240;-1.546;2023-04-06T06:26:30;5.80;;;2.27;;
77984;SDS011;67177;47.240;-1.546;2023-04-06T06:28:56;4.43;;;2.00;;
77984;SDS011;67177;47.240;-1.546;2023-04-06T06:31:22;5.85;;;1.95;;
77984;SDS011;67177;47.240;-1.546;2023-04-06T06:33:48;4.90;;;1.95;;
77984;SDS011;67177;47.240;-1.546;2023-04-06T06:36:17;4.63;;;1.80;;
77984;SDS011;67177;47.240;-1.546;2023-04-06T06:38:43;5.75;;;2.45;;
77984;SDS011;67177;47.240;-1.546;2023-04-06T06:41:09;4.87;;;2.20;;
77984;SDS011;67177;47.240;-1.546;2023-04-06T06:43:36;5.70;;;2.17;;
77984;SDS011;67177;47.240;-1.546;2023-04-06T06:46:02;5.40;;;2.20;;
77984;SDS011;67177;47.240;-1.546;2023-04-06T06:48:28;5.37;;;2.00;;
77984;SDS011;67177;47.240;-1.546;2023-04-06T06:50:54;4.40;;;1.70;;
77984;SDS011;67177;47.240;-1.546;2023-04-06T06:53:20;4.28;;;1.60;;
77984;SDS011;67177;47.240;-1.546;2023-04-06T06:55:46;5.20;;;2.30;;
77984;SDS011;67177;47.240;-1.546;2023-04-06T06:58:13;6.05;;;2.65;;
77984;SDS011;67177;47.240;-1.546;2023-04-06T07:00:40;6.75;;;2.90;;
77984;SDS011;67177;47.240;-1.546;2023-04-06T07:03:06;5.78;;;2.42;;
77984;SDS011;67177;47.240;-1.546;2023-04-06T07:05:31;4.60;;;1.98;;
77984;SDS011;67177;47.240;-1.546;2023-04-06T07:07:57;5.72;;;2.47;;
77984;SDS011;67177;47.240;-1.546;2023-04-06T07:10:23;5.40;;;2.43;;
77984;SDS011;67177;47.240;-1.546;2023-04-06T07:12:49;5.03;;;2.20;;
77984;SDS011;67177;47.240;-1.546;2023-04-06T07:15:16;5.68;;;2.03;;
77984;SDS011;67177;47.240;-1.546;2023-04-06T07:17:41;5.83;;;2.20;;
77984;SDS011;67177;47.240;-1.546;2023-04-06T07:20:10;4.88;;;2.08;;
77984;SDS011;67177;47.240;-1.546;2023-04-06T07:22:36;4.32;;;1.80;;
77984;SDS011;67177;47.240;-1.546;2023-04-06T07:25:02;6.80;;;2.25;;
77984;SDS011;67177;47.240;-1.546;2023-04-06T07:27:28;5.47;;;2.28;;
77984;SDS011;67177;47.240;-1.546;2023-04-06T07:29:54;5.28;;;2.72;;
77984;SDS011;67177;47.240;-1.546;2023-04-06T07:32:20;5.00;;;2.03;;
77984;SDS011;67177;47.240;-1.546;2023-04-06T07:34:46;5.17;;;2.57;;
77984;SDS011;67177;47.240;-1.546;2023-04-06T07:37:12;4.90;;;2.10;;
77984;SDS011;67177;47.240;-1.546;2023-04-06T07:39:38;5.03;;;2.20;;
77984;SDS011;67177;47.240;-1.546;2023-04-06T07:42:03;6.27;;;2.53;;
77984;SDS011;67177;47.240;-1.546;2023-04-06T07:44:29;6.32;;;3.00;;
77984;SDS011;67177;47.240;-1.546;2023-04-06T07:46:55;6.40;;;2.75;;
77984;SDS011;67177;47.240;-1.546;2023-04-06T07:49:21;6.43;;;2.80;;
77984;SDS011;67177;47.240;-1.546;2023-04-06T07:51:47;5.47;;;2.35;;
77984;SDS011;67177;47.240;-1.546;2023-04-06T07:54:13;5.28;;;2.42;;
77984;SDS011;67177;47.240;-1.546;2023-04-06T07:56:39;6.97;;;2.95;;
77984;SDS011;67177;47.240;-1.546;2023-04-06T07:59:05;6.45;;;2.90;;
77984;SDS011;67177;47.240;-1.546;2023-04-06T08:01:30;5.97;;;2.85;;
77984;SDS011;67177;47.240;-1.546;2023-04-06T08:03:56;6.13;;;2.50;;
77984;SDS011;67177;47.240;-1.546;2023-04-06T08:06:22;6.75;;;3.10;;
77984;SDS011;67177;47.240;-1.546;2023-04-06T08:08:48;6.18;;;3.00;;
77984;SDS011;67177;47.240;-1.546;2023-04-06T08:11:14;5.63;;;2.70;;
77984;SDS011;67177;47.240;-1.546;2023-04-06T08:13:40;7.63;;;3.25;;
77984;SDS011;67177;47.240;-1.546;2023-04-06T08:16:05;5.93;;;3.30;;
77984;SDS011;67177;47.240;-1.546;2023-04-06T08:18:31;6.38;;;3.10;;
77984;SDS011;67177;47.240;-1.546;2023-04-06T08:20:57;6.30;;;2.70;;
77984;SDS011;67177;47.240;-1.546;2023-04-06T08:23:23;6.68;;;3.10;;
77984;SDS011;67177;47.240;-1.546;2023-04-06T08:25:48;5.93;;;2.90;;
77984;SDS011;67177;47.240;-1.546;2023-04-06T08:28:14;6.10;;;2.60;;
77984;SDS011;67177;47.240;-1.546;2023-04-06T08:30:41;5.88;;;3.00;;
77984;SDS011;67177;47.240;-1.546;2023-04-06T08:33:07;6.13;;;2.90;;
77984;SDS011;67177;47.240;-1.546;2023-04-06T08:35:33;6.28;;;3.15;;
77984;SDS011;67177;47.240;-1.546;2023-04-06T08:37:59;5.53;;;2.73;;
77984;SDS011;67177;47.240;-1.546;2023-04-06T08:40:25;5.53;;;2.80;;
77984;SDS011;67177;47.240;-1.546;2023-04-06T08:42:54;6.20;;;3.00;;
77984;SDS011;67177;47.240;-1.546;2023-04-06T08:45:21;7.20;;;3.60;;
77984;SDS011;67177;47.240;-1.546;2023-04-06T08:47:50;6.28;;;2.60;;
77984;SDS011;67177;47.240;-1.546;2023-04-06T08:50:17;6.53;;;3.08;;
77984;SDS011;67177;47.240;-1.546;2023-04-06T08:52:44;6.55;;;2.80;;
77984;SDS011;67177;47.240;-1.546;2023-04-06T08:55:12;6.97;;;3.17;;
77984;SDS011;67177;47.240;-1.546;2023-04-06T08:57:38;6.45;;;2.75;;
77984;SDS011;67177;47.240;-1.546;2023-04-06T09:00:06;6.97;;;3.00;;
77984;SDS011;67177;47.240;-1.546;2023-04-06T09:02:36;5.72;;;2.50;;
77984;SDS011;67177;47.240;-1.546;2023-04-06T09:05:05;7.80;;;3.47;;
77984;SDS011;67177;47.240;-1.546;2023-04-06T09:07:32;7.27;;;2.70;;
77984;SDS011;67177;47.240;-1.546;2023-04-06T09:09:58;5.78;;;2.78;;
77984;SDS011;67177;47.240;-1.546;2023-04-06T09:12:24;5.80;;;2.50;;
77984;SDS011;67177;47.240;-1.546;2023-04-06T09:14:55;7.90;;;3.22;;
77984;SDS011;67177;47.240;-1.546;2023-04-06T09:17:22;6.25;;;2.40;;
77984;SDS011;67177;47.240;-1.546;2023-04-06T09:19:48;5.60;;;2.72;;
77984;SDS011;67177;47.240;-1.546;2023-04-06T09:22:15;5.85;;;2.75;;
77984;SDS011;67177;47.240;-1.546;2023-04-06T09:27:06;5.13;;;2.10;;
77984;SDS011;67177;47.240;-1.546;2023-04-06T09:29:32;5.07;;;2.03;;
77984;SDS011;67177;47.240;-1.546;2023-04-06T09:32:05;5.45;;;1.90;;
77984;SDS011;67177;47.240;-1.546;2023-04-06T09:34:33;4.32;;;1.63;;
77984;SDS011;67177;47.240;-1.546;2023-04-06T09:36:59;4.47;;;1.48;;
77984;SDS011;67177;47.240;-1.546;2023-04-06T09:39:25;5.63;;;1.77;;
77984;SDS011;67177;47.240;-1.546;2023-04-06T09:41:51;6.28;;;1.80;;
77984;SDS011;67177;47.240;-1.546;2023-04-06T09:44:19;4.88;;;1.85;;
77984;SDS011;67177;47.240;-1.546;2023-04-06T09:46:45;4.80;;;1.90;;
77984;SDS011;67177;47.240;-1.546;2023-04-06T09:49:12;4.97;;;1.77;;
77984;SDS011;67177;47.240;-1.546;2023-04-06T09:51:49;6.32;;;2.25;;
77984;SDS011;67177;47.240;-1.546;2023-04-06T09:54:24;5.05;;;2.03;;
77984;SDS011;67177;47.240;-1.546;2023-04-06T09:59:48;4.80;;;2.00;;
77984;SDS011;67177;47.240;-1.546;2023-04-06T10:05:33;4.68;;;1.70;;
77984;SDS011;67177;47.240;-1.546;2023-04-06T10:08:08;5.13;;;1.85;;
77984;SDS011;67177;47.240;-1.546;2023-04-06T10:10:35;5.45;;;1.95;;
77984;SDS011;67177;47.240;-1.546;2023-04-06T10:13:01;4.57;;;1.80;;
77984;SDS011;67177;47.240;-1.546;2023-04-06T10:15:28;4.38;;;1.50;;
77984;SDS011;67177;47.240;-1.546;2023-04-06T10:17:54;3.90;;;1.50;;
77984;SDS011;67177;47.240;-1.546;2023-04-06T10:20:23;4.03;;;1.55;;
77984;SDS011;67177;47.240;-1.546;2023-04-06T10:23:13;4.57;;;1.60;;
77984;SDS011;67177;47.240;-1.546;2023-04-06T10:25:53;4.50;;;1.60;;
77984;SDS011;67177;47.240;-1.546;2023-04-06T10:28:19;5.55;;;1.90;;
77984;SDS011;67177;47.240;-1.546;2023-04-06T10:30:45;4.88;;;1.50;;
77984;SDS011;67177;47.240;-1.546;2023-04-06T10:33:19;4.45;;;1.60;;
77984;SDS011;67177;47.240;-1.546;2023-04-06T10:35:45;4.03;;;1.55;;
77984;SDS011;67177;47.240;-1.546;2023-04-06T10:38:11;4.73;;;1.90;;
77984;SDS011;67177;47.240;-1.546;2023-04-06T10:40:39;5.18;;;1.73;;
77984;SDS011;67177;47.240;-1.546;2023-04-06T10:43:08;5.93;;;2.30;;
77984;SDS011;67177;47.240;-1.546;2023-04-06T10:45:36;4.95;;;2.25;;
77984;SDS011;67177;47.240;-1.546;2023-04-06T10:50:41;5.87;;;2.23;;
77984;SDS011;67177;47.240;-1.546;2023-04-06T10:53:08;4.15;;;1.60;;
77984;SDS011;67177;47.240;-1.546;2023-04-06T10:55:34;4.82;;;1.70;;
77984;SDS011;67177;47.240;-1.546;2023-04-06T10:58:06;4.85;;;1.60;;
77984;SDS011;67177;47.240;-1.546;2023-04-06T11:00:33;4.67;;;1.50;;
77984;SDS011;67177;47.240;-1.546;2023-04-06T11:03:00;4.35;;;1.85;;
77984;SDS011;67177;47.240;-1.546;2023-04-06T11:05:28;4.90;;;1.70;;
77984;SDS011;67177;47.240;-1.546;2023-04-06T11:07:55;5.10;;;2.03;;
77984;SDS011;67177;47.240;-1.546;2023-04-06T11:10:21;5.05;;;2.03;;
77984;SDS011;67177;47.240;-1.546;2023-04-06T11:12:57;4.30;;;1.63;;
77984;SDS011;67177;47.240;-1.546;2023-04-06T11:15:22;3.75;;;1.40;;
77984;SDS011;67177;47.240;-1.546;2023-04-06T11:17:48;6.10;;;2.17;;
77984;SDS011;67177;47.240;-1.546;2023-04-06T11:20:14;6.17;;;2.20;;
77984;SDS011;67177;47.240;-1.546;2023-04-06T11:22:52;4.65;;;1.70;;
77984;SDS011;67177;47.240;-1.546;2023-04-06T11:25:18;5.90;;;2.13;;
77984;SDS011;67177;47.240;-1.546;2023-04-06T11:27:46;4.90;;;2.00;;
77984;SDS011;67177;47.240;-1.546;2023-04-06T11:30:13;5.73;;;2.70;;
77984;SDS011;67177;47.240;-1.546;2023-04-06T11:32:43;5.20;;;2.33;;
77984;SDS011;67177;47.240;-1.546;2023-04-06T11:35:22;5.05;;;2.05;;
77984;SDS011;67177;47.240;-1.546;2023-04-06T11:37:49;5.53;;;2.28;;
77984;SDS011;67177;47.240;-1.546;2023-04-06T11:40:15;5.53;;;2.58;;
77984;SDS011;67177;47.240;-1.546;2023-04-06T11:42:45;5.57;;;2.40;;
77984;SDS011;67177;47.240;-1.546;2023-04-06T11:45:18;5.38;;;2.22;;
77984;SDS011;67177;47.240;-1.546;2023-04-06T11:47:44;5.30;;;2.10;;
77984;SDS011;67177;47.240;-1.546;2023-04-06T11:50:10;6.53;;;3.00;;
77984;SDS011;67177;47.240;-1.546;2023-04-06T11:52:38;5.93;;;3.00;;
77984;SDS011;67177;47.240;-1.546;2023-04-06T11:55:14;6.00;;;2.50;;
77984;SDS011;67177;47.240;-1.546;2023-04-06T11:57:42;5.45;;;2.40;;
77984;SDS011;67177;47.240;-1.546;2023-04-06T12:00:09;4.87;;;1.83;;
77984;SDS011;67177;47.240;-1.546;2023-04-06T12:02:35;4.15;;;1.70;;
77984;SDS011;67177;47.240;-1.546;2023-04-06T12:05:03;4.95;;;1.60;;
77984;SDS011;67177;47.240;-1.546;2023-04-06T12:07:30;4.20;;;1.70;;
77984;SDS011;67177;47.240;-1.546;2023-04-06T12:09:56;4.60;;;1.85;;
77984;SDS011;67177;47.240;-1.546;2023-04-06T12:12:22;4.60;;;1.70;;
77984;SDS011;67177;47.240;-1.546;2023-04-06T12:14:47;4.40;;;1.50;;
77984;SDS011;67177;47.240;-1.546;2023-04-06T12:17:13;4.47;;;1.50;;
77984;SDS011;67177;47.240;-1.546;2023-04-06T12:19:42;3.92;;;1.48;;
77984;SDS011;67177;47.240;-1.546;2023-04-06T12:22:07;3.38;;;1.23;;
77984;SDS011;67177;47.240;-1.546;2023-04-06T12:24:33;3.70;;;1.30;;
77984;SDS011;67177;47.240;-1.546;2023-04-06T12:26:59;3.90;;;1.30;;
77984;SDS011;67177;47.240;-1.546;2023-04-06T12:29:26;4.10;;;1.40;;
77984;SDS011;67177;47.240;-1.546;2023-04-06T12:31:52;3.20;;;1.10;;
77984;SDS011;67177;47.240;-1.546;2023-04-06T12:34:18;3.40;;;1.38;;
77984;SDS011;67177;47.240;-1.546;2023-04-06T12:36:43;3.97;;;1.60;;
77984;SDS011;67177;47.240;-1.546;2023-04-06T12:39:09;4.15;;;1.40;;
77984;SDS011;67177;47.240;-1.546;2023-04-06T12:41:36;3.50;;;1.27;;
77984;SDS011;67177;47.240;-1.546;2023-04-06T12:44:02;3.60;;;1.25;;
77984;SDS011;67177;47.240;-1.546;2023-04-06T12:46:28;4.30;;;1.38;;
77984;SDS011;67177;47.240;-1.546;2023-04-06T12:48:57;4.75;;;1.30;;
77984;SDS011;67177;47.240;-1.546;2023-04-06T12:51:24;3.05;;;1.10;;
77984;SDS011;67177;47.240;-1.546;2023-04-06T12:53:52;3.43;;;1.40;;
77984;SDS011;67177;47.240;-1.546;2023-04-06T12:56:18;2.80;;;0.90;;
77984;SDS011;67177;47.240;-1.546;2023-04-06T12:58:46;3.53;;;1.20;;
77984;SDS011;67177;47.240;-1.546;2023-04-06T13:01:12;3.42;;;1.20;;
77984;SDS011;67177;47.240;-1.546;2023-04-06T13:03:41;3.55;;;1.13;;
77984;SDS011;67177;47.240;-1.546;2023-04-06T13:06:07;3.80;;;1.20;;
77984;SDS011;67177;47.240;-1.546;2023-04-06T13:08:34;3.13;;;1.00;;
77984;SDS011;67177;47.240;-1.546;2023-04-06T13:11:02;4.10;;;1.30;;
77984;SDS011;67177;47.240;-1.546;2023-04-06T13:13:28;4.68;;;1.10;;
77984;SDS011;67177;47.240;-1.546;2023-04-06T13:15:58;3.63;;;1.30;;
77984;SDS011;67177;47.240;-1.546;2023-04-06T13:18:42;4.95;;;1.33;;
77984;SDS011;67177;47.240;-1.546;2023-04-06T13:21:08;4.32;;;1.20;;
77984;SDS011;67177;47.240;-1.546;2023-04-06T13:23:34;3.80;;;1.37;;
77984;SDS011;67177;47.240;-1.546;2023-04-06T13:26:00;4.05;;;1.20;;
77984;SDS011;67177;47.240;-1.546;2023-04-06T13:28:28;3.63;;;1.20;;
77984;SDS011;67177;47.240;-1.546;2023-04-06T13:30:55;4.00;;;1.17;;
77984;SDS011;67177;47.240;-1.546;2023-04-06T13:33:23;3.73;;;1.13;;
77984;SDS011;67177;47.240;-1.546;2023-04-06T13:35:48;3.33;;;1.05;;
77984;SDS011;67177;47.240;-1.546;2023-04-06T13:38:14;3.07;;;0.97;;
77984;SDS011;67177;47.240;-1.546;2023-04-06T13:40:41;2.80;;;1.00;;
77984;SDS011;67177;47.240;-1.546;2023-04-06T13:43:07;3.72;;;1.02;;
77984;SDS011;67177;47.240;-1.546;2023-04-06T13:45:33;3.70;;;1.15;;
77984;SDS011;67177;47.240;-1.546;2023-04-06T13:47:59;5.22;;;1.10;;
77984;SDS011;67177;47.240;-1.546;2023-04-06T13:50:25;3.10;;;1.10;;
77984;SDS011;67177;47.240;-1.546;2023-04-06T13:52:52;3.55;;;1.10;;
77984;SDS011;67177;47.240;-1.546;2023-04-06T13:55:18;3.00;;;0.93;;
77984;SDS011;67177;47.240;-1.546;2023-04-06T13:57:44;2.97;;;0.90;;
77984;SDS011;67177;47.240;-1.546;2023-04-06T14:00:09;3.58;;;1.10;;
77984;SDS011;67177;47.240;-1.546;2023-04-06T14:02:37;3.07;;;0.90;;
77984;SDS011;67177;47.240;-1.546;2023-04-06T14:05:06;3.67;;;1.23;;
77984;SDS011;67177;47.240;-1.546;2023-04-06T14:07:32;4.30;;;1.30;;
77984;SDS011;67177;47.240;-1.546;2023-04-06T14:09:58;3.33;;;1.10;;
77984;SDS011;67177;47.240;-1.546;2023-04-06T14:12:25;3.70;;;1.20;;
77984;SDS011;67177;47.240;-1.546;2023-04-06T14:14:51;3.47;;;1.10;;
77984;SDS011;67177;47.240;-1.546;2023-04-06T14:17:17;3.53;;;1.15;;
77984;SDS011;67177;47.240;-1.546;2023-04-06T14:19:43;3.70;;;1.30;;
77984;SDS011;67177;47.240;-1.546;2023-04-06T14:22:09;4.18;;;1.40;;
77984;SDS011;67177;47.240;-1.546;2023-04-06T14:24:35;4.90;;;1.33;;
77984;SDS011;67177;47.240;-1.546;2023-04-06T14:27:01;4.33;;;1.47;;
77984;SDS011;67177;47.240;-1.546;2023-04-06T14:29:28;3.95;;;1.33;;
77984;SDS011;67177;47.240;-1.546;2023-04-06T14:31:54;5.15;;;1.33;;
77984;SDS011;67177;47.240;-1.546;2023-04-06T14:34:28;4.35;;;1.50;;
77984;SDS011;67177;47.240;-1.546;2023-04-06T14:36:53;4.32;;;1.50;;
77984;SDS011;67177;47.240;-1.546;2023-04-06T14:39:20;5.87;;;1.60;;
77984;SDS011;67177;47.240;-1.546;2023-04-06T14:41:45;4.57;;;1.25;;